Ottawa, Ohio
Current Conditions -  °F | °C
As of 9:02 AM on Thursday 27 Nov 2014 (Local Time) from KFDY Reporting Station
Light Snow Light Snow  
Wind Chill: 23°   Ceiling: 3300
Heat Index: 30°   Visibility: 4mi
Dew Point: 24°   Wind: 7mph
Humidity: 79%   Direction: 310°NW
Pressure: 30.18"   Gusts: NA
Location:  41.02°N, 84.05°W
Report Text: KFDY 271402Z AUTO 31006KT 4SM -SN FEW014 SCT028 OVC033 M01/M04 A3018 RMK AO2 P0000 T10111044
Loading
Personal Weather Stations






























Interactive Weather Map New forecast layout! Learn more

10-Day Weather Forecast

Advertisements
Track Severe Weather on mobile